createdAt,value
2023-04-30T00:00:29.891Z,74.76
2023-04-30T00:01:23.190Z,74.76
2023-04-30T00:02:29.545Z,74.86
2023-04-30T00:03:23.201Z,74.55
2023-04-30T00:04:23.448Z,74.76
2023-04-30T00:05:31.453Z,74.76
2023-04-30T00:06:23.219Z,74.65
2023-04-30T00:07:23.459Z,74.76
2023-04-30T00:09:52.977Z,74.86
2023-04-30T00:11:00.314Z,74.96
2023-04-30T00:12:00.359Z,74.96
2023-04-30T00:12:54.465Z,75.16
2023-04-30T00:13:53.526Z,74.86
2023-04-30T00:14:53.512Z,74.86
2023-04-30T00:15:53.525Z,74.55
2023-04-30T00:16:53.479Z,74.65
2023-04-30T00:17:53.888Z,74.86
2023-04-30T00:18:53.465Z,75.06
2023-04-30T00:19:53.584Z,75.27
2023-04-30T00:21:04.352Z,75.37
2023-04-30T00:22:02.887Z,75.27
2023-04-30T00:23:01.896Z,75.27
2023-04-30T00:23:53.414Z,75.16
2023-04-30T00:24:53.921Z,75.16
2023-04-30T00:25:53.422Z,75.06
2023-04-30T00:26:53.377Z,75.16
2023-04-30T00:27:53.434Z,74.96
2023-04-30T00:28:53.351Z,75.16
2023-04-30T00:29:53.474Z,75.16
2023-04-30T00:30:53.374Z,75.16
2023-04-30T00:31:53.370Z,75.37
2023-04-30T00:32:53.348Z,75.71
2023-04-30T00:34:00.781Z,75.92
2023-04-30T00:35:58.850Z,76.42
2023-04-30T00:37:08.066Z,76.32
2023-04-30T00:37:59.838Z,76.32
2023-04-30T00:39:10.573Z,76.32
2023-04-30T00:39:59.829Z,76.42
2023-04-30T00:41:07.645Z,76.01
2023-04-30T00:42:00.153Z,76.22
2023-04-30T00:42:59.776Z,76.01
2023-04-30T00:44:08.146Z,76.12
2023-04-30T00:44:59.769Z,76.22
2023-04-30T00:46:08.743Z,76.12
2023-04-30T00:47:06.689Z,76.01
2023-04-30T00:48:09.685Z,75.71
2023-04-30T00:49:00.226Z,75.81
2023-04-30T00:50:09.238Z,75.60
2023-04-30T00:52:17.427Z,75.20
2023-04-30T00:53:25.825Z,75.30
2023-04-30T00:54:26.829Z,75.51
2023-04-30T00:55:25.363Z,75.60
2023-04-30T00:56:18.398Z,75.51
2023-04-30T00:57:18.385Z,75.71
2023-04-30T00:58:18.367Z,75.71
2023-04-30T00:59:18.358Z,75.51
2023-04-30T01:00:18.346Z,75.10
2023-04-30T01:01:18.380Z,74.49
2023-04-30T01:02:18.370Z,74.79
2023-04-30T01:03:29.918Z,74.79
2023-04-30T01:04:18.354Z,74.49
2023-04-30T01:06:35.171Z,74.49
2023-04-30T01:07:47.965Z,74.38
2023-04-30T01:08:44.434Z,74.49
2023-04-30T01:09:36.117Z,74.38
2023-04-30T01:10:36.093Z,74.58
2023-04-30T01:11:42.954Z,74.49
2023-04-30T01:12:44.464Z,74.08
2023-04-30T01:13:42.976Z,74.28
2023-04-30T01:14:36.053Z,74.38
2023-04-30T01:15:36.062Z,74.28
2023-04-30T01:16:36.042Z,74.58
2023-04-30T01:17:44.022Z,74.79
2023-04-30T01:18:36.094Z,74.28
2023-04-30T01:19:35.982Z,74.28
2023-04-30T01:20:35.992Z,74.38
2023-04-30T01:21:44.504Z,74.08
2023-04-30T01:22:35.978Z,74.08
2023-04-30T01:23:42.581Z,73.88
2023-04-30T01:24:35.939Z,74.08
2023-04-30T01:25:35.925Z,73.57
2023-04-30T01:26:43.541Z,73.47
2023-04-30T01:27:47.577Z,73.67
2023-04-30T01:28:35.905Z,73.57
2023-04-30T01:29:35.876Z,73.67
2023-04-30T01:30:45.757Z,73.47
2023-04-30T01:31:35.923Z,73.77
2023-04-30T01:32:43.731Z,73.97
2023-04-30T01:33:47.680Z,73.97
2023-04-30T01:34:42.777Z,73.77
2023-04-30T01:35:35.829Z,73.88
2023-04-30T01:36:43.242Z,73.97
2023-04-30T01:37:42.660Z,74.08
2023-04-30T01:38:35.877Z,73.97
2023-04-30T01:39:36.260Z,74.21
2023-04-30T01:40:42.282Z,74.18
2023-04-30T01:41:46.306Z,74.28
2023-04-30T01:45:50.967Z,74.28
2023-04-30T01:46:51.934Z,74.38
2023-04-30T01:48:02.535Z,74.52
2023-04-30T01:48:59.913Z,74.38
2023-04-30T01:49:52.233Z,74.28
2023-04-30T01:51:01.433Z,74.32
2023-04-30T01:51:51.947Z,74.52
2023-04-30T01:53:01.445Z,74.32
2023-04-30T01:53:59.484Z,74.42
2023-04-30T01:54:51.824Z,74.32
2023-04-30T01:55:51.812Z,74.42
2023-04-30T01:57:01.542Z,74.32
2023-04-30T01:57:52.542Z,74.32
2023-04-30T01:58:58.538Z,74.42
2023-04-30T01:59:52.196Z,74.42
2023-04-30T02:01:03.550Z,74.28
2023-04-30T02:02:01.653Z,74.32
2023-04-30T02:03:00.201Z,74.28
2023-04-30T02:03:59.210Z,74.42
2023-04-30T02:05:01.605Z,74.42
2023-04-30T02:05:51.703Z,73.97
2023-04-30T02:07:03.174Z,74.11
2023-04-30T02:07:59.684Z,74.32
2023-04-30T02:08:51.695Z,74.32
2023-04-30T02:10:01.243Z,74.32
2023-04-30T02:10:51.682Z,74.42
2023-04-30T02:12:01.232Z,74.32
2023-04-30T02:12:51.621Z,74.42
2023-04-30T02:13:59.301Z,74.32
2023-04-30T02:14:51.626Z,74.62
2023-04-30T02:15:51.716Z,74.83
2023-04-30T02:16:51.619Z,74.83
2023-04-30T02:18:02.350Z,74.93
2023-04-30T02:20:06.926Z,74.83
2023-04-30T02:21:07.931Z,74.73
2023-04-30T02:22:07.898Z,74.62
2023-04-30T02:23:07.927Z,74.73
2023-04-30T02:24:08.871Z,74.83
2023-04-30T02:25:07.914Z,74.93
2023-04-30T02:26:08.164Z,74.93
2023-04-30T02:27:17.662Z,75.03
2023-04-30T02:28:16.202Z,75.13
2023-04-30T02:29:07.861Z,75.03
2023-04-30T02:30:17.700Z,75.13
2023-04-30T02:31:07.848Z,75.23
2023-04-30T02:32:15.190Z,74.93
2023-04-30T02:33:07.863Z,74.93
2023-04-30T02:34:17.744Z,75.03
2023-04-30T02:35:08.291Z,75.23
2023-04-30T02:36:15.735Z,74.83
2023-04-30T02:37:07.745Z,74.83
2023-04-30T02:38:07.723Z,74.93
2023-04-30T02:39:15.763Z,74.93
2023-04-30T02:40:07.685Z,74.83
2023-04-30T02:41:17.279Z,74.86
2023-04-30T02:42:07.697Z,74.96
2023-04-30T02:43:14.290Z,75.07
2023-04-30T02:44:14.296Z,75.07
2023-04-30T02:45:07.653Z,75.07
2023-04-30T02:46:07.667Z,74.96
2023-04-30T02:47:07.646Z,74.93
2023-04-30T02:49:56.481Z,74.83
2023-04-30T02:50:57.215Z,74.83
2023-04-30T02:52:07.142Z,74.96
2023-04-30T02:52:57.628Z,75.07
2023-04-30T02:53:57.216Z,75.16
2023-04-30T02:57:17.153Z,75.37
2023-04-30T02:58:27.466Z,75.37
2023-04-30T02:59:24.986Z,75.16
2023-04-30T03:01:51.086Z,75.07
2023-04-30T03:02:52.109Z,75.16
2023-04-30T03:04:01.829Z,75.16
2023-04-30T03:04:52.020Z,75.27
2023-04-30T03:06:01.886Z,75.27
2023-04-30T03:07:00.998Z,75.27
2023-04-30T03:08:00.388Z,75.16
2023-04-30T03:08:51.978Z,75.16
2023-04-30T03:09:52.124Z,74.96
2023-04-30T03:10:58.877Z,74.96
2023-04-30T03:11:51.937Z,74.73
2023-04-30T03:12:58.919Z,74.73
2023-04-30T03:14:01.428Z,74.93
2023-04-30T03:14:51.929Z,74.83
2023-04-30T03:15:52.128Z,74.73
2023-04-30T03:16:58.428Z,74.73
2023-04-30T03:18:01.595Z,74.73
2023-04-30T03:18:51.866Z,74.83
2023-04-30T03:19:58.484Z,74.52
2023-04-30T03:25:34.780Z,75.16
2023-04-30T03:26:35.217Z,75.16
2023-04-30T03:27:43.695Z,75.13
2023-04-30T03:28:35.205Z,75.03
2023-04-30T03:29:50.720Z,74.93
2023-04-30T03:30:35.195Z,74.93
2023-04-30T03:31:35.190Z,74.96
2023-04-30T03:32:42.308Z,75.07
2023-04-30T03:33:43.423Z,74.96
2023-04-30T03:34:44.765Z,74.86
2023-04-30T03:35:35.283Z,75.07
2023-04-30T03:36:35.105Z,74.96
2023-04-30T03:37:35.091Z,75.07
2023-04-30T03:38:44.829Z,74.96
2023-04-30T03:39:35.296Z,75.07
2023-04-30T03:40:35.057Z,75.07
2023-04-30T03:41:35.035Z,74.96
2023-04-30T03:42:45.417Z,75.07
2023-04-30T03:43:41.827Z,75.16
2023-04-30T03:47:01.272Z,75.27
2023-04-30T03:48:09.602Z,74.96
2023-04-30T03:49:02.540Z,75.16
2023-04-30T03:50:09.050Z,75.16
2023-04-30T03:51:02.214Z,75.27
2023-04-30T03:52:02.226Z,75.57
2023-04-30T03:53:02.213Z,75.57
2023-04-30T03:54:12.064Z,75.57
2023-04-30T03:55:09.063Z,75.68
2023-04-30T03:56:02.999Z,75.88
2023-04-30T03:57:10.582Z,75.88
2023-04-30T03:58:02.180Z,75.57
2023-04-30T03:59:02.141Z,75.48
2023-04-30T04:00:09.093Z,75.68
2023-04-30T04:03:46.989Z,75.68
2023-04-30T04:04:47.724Z,75.78
2023-04-30T04:05:47.928Z,75.82
2023-04-30T04:06:55.982Z,76.12
2023-04-30T04:07:47.699Z,75.92
2023-04-30T04:08:47.669Z,75.78
2023-04-30T04:10:06.996Z,75.88
2023-04-30T04:10:47.659Z,75.68
2023-04-30T04:11:47.638Z,75.57
2023-04-30T04:12:54.489Z,75.68
2023-04-30T04:13:47.638Z,75.37
2023-04-30T04:14:47.600Z,75.27
2023-04-30T04:15:57.566Z,75.48
2023-04-30T04:16:48.007Z,75.48
2023-04-30T04:17:57.548Z,75.71
2023-04-30T04:18:47.552Z,75.27
2023-04-30T04:19:47.587Z,75.27
2023-04-30T04:20:57.056Z,75.07
2023-04-30T04:21:47.532Z,74.96
2023-04-30T04:22:57.086Z,74.76
2023-04-30T04:23:47.507Z,74.76
2023-04-30T04:24:47.496Z,74.66
2023-04-30T04:25:47.573Z,74.55
2023-04-30T04:26:48.260Z,74.35
2023-04-30T04:29:04.341Z,74.35
2023-04-30T04:30:05.539Z,74.35
2023-04-30T04:31:12.099Z,74.35
2023-04-30T04:32:05.334Z,74.35
2023-04-30T04:33:15.084Z,73.94
2023-04-30T04:34:05.237Z,73.84
2023-04-30T04:35:05.235Z,74.05
2023-04-30T04:36:13.593Z,73.74
2023-04-30T04:37:05.230Z,73.71
2023-04-30T04:38:15.114Z,73.71
2023-04-30T04:39:15.138Z,73.50
2023-04-30T04:40:15.160Z,73.71
2023-04-30T04:41:14.709Z,73.91
2023-04-30T04:42:13.194Z,74.05
2023-04-30T04:43:14.706Z,73.81
2023-04-30T04:44:05.124Z,73.71
2023-04-30T04:45:14.713Z,73.91
2023-04-30T04:46:14.446Z,73.74
2023-04-30T04:47:05.100Z,73.94
2023-04-30T04:48:05.124Z,73.91
2023-04-30T04:49:05.284Z,73.81
2023-04-30T04:50:11.757Z,73.71
2023-04-30T04:51:05.050Z,73.60
2023-04-30T04:52:05.037Z,73.40
2023-04-30T04:53:14.786Z,73.30
2023-04-30T04:54:05.293Z,73.19
2023-04-30T04:55:05.003Z,73.10
2023-04-30T04:56:11.800Z,72.69
2023-04-30T04:57:04.987Z,72.89
2023-04-30T04:58:11.834Z,72.79
2023-04-30T04:59:04.953Z,72.58
2023-04-30T05:00:14.843Z,72.48
2023-04-30T05:01:04.974Z,72.48
2023-04-30T05:02:05.080Z,72.48
2023-04-30T05:03:05.050Z,72.48
2023-04-30T05:05:23.265Z,72.34
2023-04-30T05:06:24.951Z,72.24
2023-04-30T05:07:24.217Z,72.24
2023-04-30T05:08:33.189Z,72.04
2023-04-30T05:09:24.223Z,71.84
2023-04-30T05:10:24.516Z,71.84
2023-04-30T05:11:24.174Z,71.84
2023-04-30T05:12:24.162Z,71.94
2023-04-30T05:13:24.536Z,71.94
2023-04-30T05:14:33.525Z,71.63
2023-04-30T05:15:24.153Z,71.53
2023-04-30T05:16:24.198Z,71.43
2023-04-30T05:17:24.165Z,71.39
2023-04-30T05:18:32.546Z,71.53
2023-04-30T05:19:24.597Z,71.39
2023-04-30T05:20:34.060Z,71.43
2023-04-30T05:21:24.059Z,71.53
2023-04-30T05:22:33.570Z,71.39
2023-04-30T05:23:32.097Z,71.30
2023-04-30T05:24:33.605Z,71.30
2023-04-30T05:25:30.639Z,71.30
2023-04-30T05:26:30.003Z,71.19
2023-04-30T05:29:56.758Z,70.89
2023-04-30T05:30:57.117Z,70.99
2023-04-30T05:32:07.151Z,70.89
2023-04-30T05:33:04.091Z,70.48
2023-04-30T05:33:57.075Z,70.58
2023-04-30T05:34:57.067Z,70.58
2023-04-30T05:37:23.588Z,70.89
2023-04-30T05:38:24.563Z,71.09
2023-04-30T05:39:24.548Z,71.19
2023-04-30T05:40:24.534Z,70.89
2023-04-30T05:41:24.518Z,70.99
2023-04-30T05:42:24.535Z,70.58
2023-04-30T05:43:24.820Z,70.68
2023-04-30T05:44:31.326Z,70.55
2023-04-30T05:45:24.505Z,70.24
2023-04-30T05:46:34.338Z,69.93
2023-04-30T05:47:34.408Z,69.60
2023-04-30T05:48:32.886Z,69.49
2023-04-30T05:49:36.041Z,69.60
2023-04-30T05:50:24.431Z,68.99
2023-04-30T05:51:24.424Z,69.19
2023-04-30T05:52:32.457Z,69.09
2023-04-30T05:53:24.421Z,69.53
2023-04-30T05:54:24.385Z,69.73
2023-04-30T05:55:30.952Z,69.70
2023-04-30T05:56:24.378Z,69.49
2023-04-30T05:57:33.964Z,69.19
2023-04-30T05:58:24.346Z,68.99
2023-04-30T05:59:24.340Z,68.99
2023-04-30T06:02:52.448Z,68.44
2023-04-30T06:03:59.924Z,68.18
2023-04-30T06:04:53.187Z,68.27
2023-04-30T06:06:01.483Z,68.14
2023-04-30T06:10:47.685Z,67.43
2023-04-30T06:13:37.940Z,67.22
2023-04-30T06:14:48.833Z,67.33
2023-04-30T06:15:48.848Z,66.72
2023-04-30T06:16:39.062Z,66.49
2023-04-30T06:18:56.380Z,66.49
2023-04-30T06:19:56.861Z,66.38
2023-04-30T06:21:04.998Z,66.18
2023-04-30T06:21:56.994Z,66.38
2023-04-30T06:24:13.757Z,66.08
2023-04-30T06:25:24.268Z,66.18
2023-04-30T06:26:23.504Z,66.18
2023-04-30T06:27:14.497Z,65.74
2023-04-30T06:29:40.885Z,65.33
2023-04-30T06:30:41.851Z,65.30
2023-04-30T06:31:41.856Z,64.62
2023-04-30T06:32:41.856Z,64.59
2023-04-30T06:33:51.614Z,65.03
2023-04-30T06:34:51.630Z,64.70
2023-04-30T06:35:48.677Z,64.29
2023-04-30T06:36:41.763Z,64.15
2023-04-30T06:37:47.744Z,64.06
2023-04-30T06:38:51.701Z,63.95
2023-04-30T06:39:42.163Z,64.06
2023-04-30T06:40:48.722Z,63.75
2023-04-30T06:41:51.230Z,63.85
2023-04-30T06:42:41.689Z,64.26
2023-04-30T06:43:49.773Z,63.95
2023-04-30T06:44:41.677Z,63.75
2023-04-30T06:45:47.701Z,63.85
2023-04-30T06:46:41.748Z,63.65
2023-04-30T06:47:41.681Z,63.01
2023-04-30T06:48:41.631Z,62.71
2023-04-30T06:49:50.796Z,62.60
2023-04-30T06:50:41.613Z,61.99
2023-04-30T06:51:41.613Z,62.10
2023-04-30T06:52:41.784Z,62.27
2023-04-30T06:53:48.321Z,62.07
2023-04-30T06:54:48.315Z,61.66
2023-04-30T06:55:41.563Z,61.56
2023-04-30T06:56:41.569Z,61.76
2023-04-30T06:57:41.822Z,61.94
2023-04-30T06:58:41.526Z,61.33
2023-04-30T06:59:50.354Z,61.13
2023-04-30T07:00:41.504Z,61.56
2023-04-30T07:02:58.404Z,61.66
2023-04-30T07:04:06.100Z,61.25
2023-04-30T07:04:59.308Z,61.79
2023-04-30T07:06:07.643Z,62.10
2023-04-30T07:10:08.278Z,62.07
2023-04-30T07:11:09.276Z,61.97
2023-04-30T07:12:16.548Z,62.07
2023-04-30T07:13:09.251Z,61.43
2023-04-30T07:14:15.255Z,61.23
2023-04-30T07:15:09.246Z,61.53
2023-04-30T07:16:19.104Z,61.13
2023-04-30T07:17:17.652Z,60.79
2023-04-30T07:18:17.114Z,61.00
2023-04-30T07:19:09.177Z,61.20
2023-04-30T07:20:19.114Z,60.69
2023-04-30T07:21:09.182Z,61.20
2023-04-30T07:22:09.620Z,60.79
2023-04-30T07:23:09.628Z,60.39
2023-04-30T07:24:16.634Z,60.79
2023-04-30T07:25:17.200Z,60.36
2023-04-30T07:26:09.112Z,60.57
2023-04-30T07:27:09.189Z,60.16
2023-04-30T07:28:17.181Z,59.85
2023-04-30T07:29:09.084Z,59.32
2023-04-30T07:30:09.065Z,60.06
2023-04-30T07:31:15.737Z,59.95
2023-04-30T07:32:09.223Z,60.06
2023-04-30T07:34:51.461Z,59.52
2023-04-30T07:37:04.018Z,58.71
2023-04-30T07:38:04.998Z,58.71
2023-04-30T07:39:05.020Z,58.11
2023-04-30T07:40:22.030Z,57.70
2023-04-30T07:41:05.015Z,57.70
2023-04-30T07:42:05.272Z,58.00
2023-04-30T07:43:05.058Z,57.57
2023-04-30T07:44:04.928Z,57.47
2023-04-30T07:45:04.948Z,57.57
2023-04-30T07:47:55.659Z,56.73
2023-04-30T07:48:56.652Z,56.84
2023-04-30T07:50:04.447Z,56.73
2023-04-30T07:52:29.884Z,56.73
2023-04-30T07:53:30.893Z,56.63
2023-04-30T07:54:31.441Z,56.84
2023-04-30T07:55:30.635Z,56.84
2023-04-30T07:56:30.920Z,56.63
2023-04-30T07:57:30.649Z,56.15
2023-04-30T07:58:38.187Z,55.44
2023-04-30T07:59:31.477Z,55.98
2023-04-30T08:00:30.602Z,56.48
2023-04-30T08:01:42.506Z,56.38
2023-04-30T08:02:30.838Z,56.38
2023-04-30T08:03:30.714Z,56.38
2023-04-30T08:04:31.035Z,56.48
2023-04-30T08:05:31.090Z,56.38
2023-04-30T08:06:40.553Z,56.28
2023-04-30T08:07:30.594Z,56.28
2023-04-30T08:08:30.506Z,56.28
2023-04-30T08:09:31.026Z,57.29
2023-04-30T08:10:40.051Z,55.35
2023-04-30T08:11:30.501Z,55.35
2023-04-30T08:12:30.456Z,55.15
2023-04-30T08:13:30.456Z,55.04
2023-04-30T08:14:30.442Z,55.04
2023-04-30T08:15:37.046Z,54.64
2023-04-30T08:16:30.448Z,53.72
2023-04-30T08:17:30.441Z,53.75
2023-04-30T08:18:37.052Z,54.03
2023-04-30T08:19:39.389Z,54.05
2023-04-30T08:20:30.381Z,53.72
2023-04-30T08:21:31.192Z,53.63
2023-04-30T08:22:30.368Z,53.72
2023-04-30T08:23:37.104Z,53.52
2023-04-30T08:24:30.337Z,53.83
2023-04-30T08:25:37.132Z,53.70
2023-04-30T08:26:30.336Z,53.40
2023-04-30T08:28:47.136Z,52.36
2023-04-30T08:31:15.757Z,52.79
2023-04-30T08:32:16.805Z,52.48
2023-04-30T08:33:23.583Z,52.39
2023-04-30T08:34:16.668Z,52.16
2023-04-30T08:35:16.689Z,51.76
2023-04-30T08:36:26.505Z,51.55
2023-04-30T08:37:16.665Z,51.78
2023-04-30T08:38:27.612Z,52.39
2023-04-30T08:39:16.646Z,52.79
2023-04-30T08:40:43.864Z,52.76
2023-04-30T08:41:16.602Z,53.38
2023-04-30T08:42:17.049Z,53.17
2023-04-30T08:43:26.600Z,52.76
2023-04-30T08:44:16.586Z,53.17
2023-04-30T08:45:25.617Z,53.07
2023-04-30T08:46:16.601Z,53.05
2023-04-30T08:47:16.548Z,52.74
2023-04-30T08:48:25.559Z,52.64
2023-04-30T08:49:16.537Z,52.74
2023-04-30T08:50:16.526Z,52.64
2023-04-30T08:51:16.509Z,52.51
2023-04-30T08:52:23.129Z,52.51
2023-04-30T08:53:24.652Z,52.31
2023-04-30T08:54:16.490Z,52.19
2023-04-30T08:55:16.465Z,51.76
2023-04-30T08:56:16.454Z,51.05
2023-04-30T08:57:17.179Z,49.54
2023-04-30T08:58:36.231Z,49.74
2023-04-30T08:59:16.432Z,49.04
2023-04-30T09:00:16.460Z,48.91
2023-04-30T09:01:26.203Z,48.71
2023-04-30T09:02:16.540Z,48.30
2023-04-30T09:03:24.870Z,47.88
2023-04-30T09:04:16.396Z,47.88
2023-04-30T09:05:16.365Z,47.35
2023-04-30T09:06:26.235Z,47.43
2023-04-30T09:07:16.329Z,46.73
2023-04-30T09:08:16.727Z,46.20
2023-04-30T09:09:22.298Z,46.00
2023-04-30T09:10:23.312Z,45.82
2023-04-30T09:11:25.770Z,45.92
2023-04-30T09:12:23.836Z,46.55
2023-04-30T09:13:26.421Z,47.05
2023-04-30T09:14:25.844Z,47.58
2023-04-30T09:15:16.249Z,47.07
2023-04-30T09:16:16.370Z,46.97
2023-04-30T09:17:16.235Z,47.67
2023-04-30T09:18:16.364Z,47.38
2023-04-30T09:19:30.876Z,47.35
2023-04-30T09:20:16.192Z,46.85
2023-04-30T09:21:26.881Z,46.34
2023-04-30T09:22:16.379Z,46.14
2023-04-30T09:23:16.153Z,45.82
2023-04-30T09:24:16.726Z,45.52
2023-04-30T09:25:16.176Z,45.42
2023-04-30T09:26:16.140Z,45.14
2023-04-30T09:27:16.097Z,44.21
2023-04-30T09:28:16.105Z,43.60
2023-04-30T09:29:16.387Z,44.61
2023-04-30T09:31:32.924Z,43.91
2023-04-30T09:32:33.930Z,44.21
2023-04-30T09:33:40.718Z,44.53
2023-04-30T09:34:33.875Z,45.56
2023-04-30T09:35:33.916Z,45.94
2023-04-30T09:36:40.692Z,45.66
2023-04-30T09:37:34.815Z,45.86
2023-04-30T09:38:34.218Z,45.66
2023-04-30T09:39:42.811Z,45.76
2023-04-30T09:40:43.742Z,45.44
2023-04-30T09:41:44.824Z,45.14
2023-04-30T09:42:33.794Z,45.64
2023-04-30T09:43:34.264Z,45.66
2023-04-30T09:44:33.766Z,45.44
2023-04-30T09:45:41.785Z,44.59
2023-04-30T09:46:33.848Z,44.69
2023-04-30T09:47:33.892Z,44.47
2023-04-30T09:48:41.801Z,45.19
2023-04-30T09:49:41.805Z,43.99
2023-04-30T09:50:33.706Z,44.09
2023-04-30T09:51:33.703Z,43.91
2023-04-30T09:52:33.817Z,44.01
2023-04-30T09:53:43.331Z,44.11
2023-04-30T09:54:40.355Z,44.11
2023-04-30T09:55:33.651Z,44.11
2023-04-30T09:56:33.633Z,44.71
2023-04-30T09:57:33.629Z,44.01
2023-04-30T09:58:34.515Z,43.80
2023-04-30T09:59:41.862Z,43.91
2023-04-30T10:00:41.901Z,44.39
2023-04-30T10:01:33.603Z,43.87
2023-04-30T10:02:33.885Z,42.55
2023-04-30T10:03:41.983Z,42.66
2023-04-30T10:04:41.907Z,42.33
2023-04-30T10:05:34.523Z,41.73
2023-04-30T10:06:42.550Z,42.15
2023-04-30T10:07:33.525Z,42.33
2023-04-30T10:09:48.892Z,41.41
2023-04-30T10:10:49.870Z,41.29
2023-04-30T10:11:49.844Z,40.99
2023-04-30T10:12:56.616Z,40.69
2023-04-30T10:13:58.128Z,41.61
2023-04-30T10:14:49.841Z,42.01
2023-04-30T10:15:49.789Z,41.73
2023-04-30T10:16:49.867Z,41.83
2023-04-30T10:17:49.906Z,42.01
2023-04-30T10:18:56.647Z,41.71
2023-04-30T10:19:59.666Z,41.41
2023-04-30T10:20:49.767Z,42.24
2023-04-30T10:21:49.743Z,42.44
2023-04-30T10:22:59.681Z,42.74
2023-04-30T10:24:01.193Z,42.44
2023-04-30T10:24:49.708Z,42.61
2023-04-30T10:25:49.704Z,42.44
2023-04-30T10:27:00.257Z,42.24
2023-04-30T10:27:49.689Z,42.76
2023-04-30T10:28:49.686Z,43.04
2023-04-30T10:29:49.665Z,42.66
2023-04-30T10:31:01.239Z,42.55
2023-04-30T10:31:49.817Z,42.86
2023-04-30T10:32:59.786Z,43.16
2023-04-30T10:33:59.304Z,43.24
2023-04-30T10:34:49.601Z,42.64
2023-04-30T10:35:56.323Z,41.61
2023-04-30T10:36:56.329Z,42.05
2023-04-30T10:37:49.588Z,42.86
2023-04-30T10:38:50.352Z,42.33
2023-04-30T10:39:57.873Z,42.76
2023-04-30T10:40:57.910Z,42.55
2023-04-30T10:41:49.687Z,42.74
2023-04-30T10:42:49.548Z,42.21
2023-04-30T10:43:59.045Z,41.91
2023-04-30T10:44:49.500Z,41.91
2023-04-30T10:45:49.474Z,41.51
2023-04-30T10:46:49.466Z,41.93
2023-04-30T10:47:58.019Z,42.46
2023-04-30T10:48:58.455Z,42.96
2023-04-30T10:49:49.939Z,42.03
2023-04-30T10:50:49.432Z,42.01
2023-04-30T10:51:49.458Z,42.13
2023-04-30T10:54:59.669Z,41.82
2023-04-30T10:56:00.805Z,41.79
2023-04-30T10:57:00.648Z,41.37
2023-04-30T10:58:00.675Z,41.47
2023-04-30T10:59:00.615Z,41.07
2023-04-30T11:00:00.773Z,41.45
2023-04-30T11:01:00.883Z,40.55
2023-04-30T11:02:00.753Z,39.84
2023-04-30T11:03:00.600Z,39.93
2023-04-30T11:04:01.353Z,40.65
2023-04-30T11:05:00.661Z,40.73
2023-04-30T11:06:06.635Z,40.85
2023-04-30T11:07:00.526Z,40.67
2023-04-30T11:08:00.522Z,40.87
2023-04-30T11:09:00.773Z,40.77
2023-04-30T11:10:00.533Z,40.67
2023-04-30T11:11:00.477Z,40.15
2023-04-30T11:12:07.970Z,39.93
2023-04-30T11:13:08.285Z,40.05
2023-04-30T11:14:07.321Z,41.19
2023-04-30T11:15:08.869Z,41.91
2023-04-30T11:16:07.417Z,41.69
2023-04-30T11:17:10.388Z,41.39
2023-04-30T11:18:08.527Z,41.49
2023-04-30T11:19:00.393Z,41.21
2023-04-30T11:20:00.437Z,41.79
2023-04-30T11:21:00.377Z,41.69
2023-04-30T11:23:46.486Z,41.41
2023-04-30T11:24:54.997Z,41.59
2023-04-30T11:25:47.457Z,40.79
2023-04-30T11:26:47.471Z,41.71
2023-04-30T11:27:47.431Z,41.71
2023-04-30T11:28:47.936Z,41.31
2023-04-30T11:29:47.420Z,41.19
2023-04-30T11:30:47.424Z,41.01
2023-04-30T11:31:47.409Z,41.53
2023-04-30T11:32:47.471Z,41.63
2023-04-30T11:35:25.508Z,41.09
2023-04-30T11:36:26.508Z,40.79
2023-04-30T11:37:33.329Z,40.57
2023-04-30T11:38:34.767Z,40.28
2023-04-30T11:39:26.486Z,40.59
2023-04-30T11:40:26.794Z,40.79
2023-04-30T11:41:26.466Z,40.97
2023-04-30T11:42:34.912Z,40.77
2023-04-30T11:43:26.450Z,40.15
2023-04-30T11:44:26.428Z,40.06
2023-04-30T11:45:26.411Z,40.55
2023-04-30T11:46:26.422Z,40.03
2023-04-30T11:47:26.407Z,39.73
2023-04-30T11:48:26.374Z,39.31
2023-04-30T11:49:26.368Z,39.53
2023-04-30T11:51:41.700Z,39.37
2023-04-30T11:52:42.710Z,38.57
2023-04-30T11:53:42.690Z,38.37
2023-04-30T11:54:52.466Z,37.65
2023-04-30T11:55:42.669Z,37.88
2023-04-30T11:58:10.300Z,38.68
2023-04-30T11:59:21.065Z,38.20
2023-04-30T12:00:11.278Z,37.90
2023-04-30T12:01:11.597Z,38.34
2023-04-30T12:02:21.188Z,39.14
2023-04-30T12:03:11.392Z,39.34
2023-04-30T12:04:11.348Z,39.06
2023-04-30T12:05:11.246Z,39.16
2023-04-30T12:06:19.608Z,39.45
2023-04-30T12:07:11.221Z,39.84
2023-04-30T12:08:21.124Z,39.25
2023-04-30T12:09:19.672Z,39.23
2023-04-30T12:10:11.196Z,38.42
2023-04-30T12:11:11.639Z,38.53
2023-04-30T12:12:12.131Z,38.62
2023-04-30T12:13:11.152Z,39.34
2023-04-30T12:14:11.650Z,39.34
2023-04-30T12:15:20.661Z,40.05
2023-04-30T12:16:11.117Z,39.83
2023-04-30T12:17:11.107Z,39.53
2023-04-30T12:18:21.674Z,39.42
2023-04-30T12:19:11.118Z,39.31
2023-04-30T12:20:20.714Z,39.11
2023-04-30T12:21:20.733Z,38.51
2023-04-30T12:22:11.060Z,39.40
2023-04-30T12:23:20.723Z,39.21
2023-04-30T12:24:11.233Z,38.89
2023-04-30T12:25:11.018Z,38.59
2023-04-30T12:26:17.749Z,38.29
2023-04-30T12:27:19.258Z,37.98
2023-04-30T12:28:10.983Z,37.66
2023-04-30T12:29:20.804Z,37.77
2023-04-30T12:30:10.960Z,38.27
2023-04-30T12:31:18.837Z,38.27
2023-04-30T12:32:20.151Z,38.18
2023-04-30T12:33:11.010Z,38.18
2023-04-30T12:34:10.917Z,37.70
2023-04-30T12:35:10.921Z,38.53
2023-04-30T12:36:23.361Z,38.82
2023-04-30T12:37:10.890Z,38.81
2023-04-30T12:38:10.902Z,37.88
2023-04-30T12:39:10.876Z,38.29
2023-04-30T12:40:10.864Z,37.35
2023-04-30T12:41:10.853Z,36.65
2023-04-30T12:42:10.882Z,36.55
2023-04-30T12:43:18.321Z,37.15
2023-04-30T12:44:20.398Z,37.37
2023-04-30T12:45:10.814Z,36.94
2023-04-30T12:46:10.992Z,36.53
2023-04-30T12:47:10.814Z,35.93
2023-04-30T12:48:10.808Z,36.03
2023-04-30T12:49:17.489Z,36.25
2023-04-30T12:50:17.490Z,36.65
2023-04-30T12:51:10.738Z,36.35
2023-04-30T12:52:17.444Z,36.15
2023-04-30T12:53:21.088Z,36.65
2023-04-30T12:54:20.469Z,36.33
2023-04-30T12:55:10.738Z,36.13
2023-04-30T12:56:11.003Z,35.81
2023-04-30T12:57:25.521Z,35.61
2023-04-30T12:58:19.637Z,36.15
2023-04-30T12:59:10.649Z,36.63
2023-04-30T13:01:23.217Z,35.71
2023-04-30T13:02:34.894Z,35.61
2023-04-30T13:03:24.037Z,35.83
2023-04-30T13:04:30.039Z,36.13
2023-04-30T13:05:24.003Z,35.91
2023-04-30T13:06:33.876Z,35.30
2023-04-30T13:07:23.971Z,35.19
2023-04-30T13:08:42.273Z,35.39
2023-04-30T13:09:23.954Z,35.18
2023-04-30T13:10:23.942Z,35.30
2023-04-30T13:11:24.389Z,35.89
2023-04-30T13:12:23.922Z,35.80
2023-04-30T13:13:23.908Z,35.80
2023-04-30T13:14:23.897Z,35.89
2023-04-30T13:15:23.888Z,35.28
2023-04-30T13:16:24.948Z,34.78
2023-04-30T13:17:23.892Z,34.68
2023-04-30T13:18:23.858Z,34.30
2023-04-30T13:19:23.841Z,34.41
2023-04-30T13:20:23.871Z,35.21
2023-04-30T13:21:23.818Z,35.53
2023-04-30T13:23:51.316Z,35.85
2023-04-30T13:24:43.012Z,35.63
2023-04-30T13:25:41.673Z,35.19
2023-04-30T13:26:49.938Z,34.78
2023-04-30T13:27:41.624Z,34.55
2023-04-30T13:28:48.512Z,34.43
2023-04-30T13:29:41.576Z,33.63
2023-04-30T13:30:52.505Z,33.33
2023-04-30T13:32:59.896Z,33.35
2023-04-30T13:34:00.895Z,33.75
2023-04-30T13:35:09.176Z,33.12
2023-04-30T13:36:07.660Z,33.13
2023-04-30T13:37:09.690Z,33.33
2023-04-30T13:38:10.754Z,32.83
2023-04-30T13:39:00.822Z,33.54
2023-04-30T13:40:01.232Z,33.35
2023-04-30T13:42:17.385Z,33.23
2023-04-30T13:43:28.082Z,33.23
2023-04-30T13:44:26.006Z,33.15
2023-04-30T13:45:18.381Z,32.85
2023-04-30T13:46:18.404Z,33.86
2023-04-30T13:48:30.078Z,34.00
2023-04-30T13:49:39.998Z,33.89
2023-04-30T13:50:30.193Z,34.09
2023-04-30T13:51:30.495Z,34.09
2023-04-30T13:52:40.042Z,34.41
2023-04-30T13:53:31.125Z,34.41
2023-04-30T13:54:40.164Z,34.21
2023-04-30T13:55:38.582Z,34.33
2023-04-30T13:56:30.170Z,34.84
2023-04-30T13:57:30.123Z,35.25
2023-04-30T13:58:30.142Z,35.35
2023-04-30T14:01:29.343Z,35.51
2023-04-30T14:02:30.348Z,35.19
2023-04-30T14:03:30.391Z,34.69
2023-04-30T14:04:38.572Z,34.88
2023-04-30T14:05:40.120Z,33.53
2023-04-30T14:06:40.169Z,31.96
2023-04-30T14:07:30.617Z,31.54
2023-04-30T14:08:30.238Z,31.79
2023-04-30T14:09:30.228Z,32.52